Time;durP1;ratioP1;P1;durP2;ratioP2;P2;SDS_P1;SDS_P2;PMS_P1;PMS_P2;Temp;Humidity;BMP_temperature;BMP_pressure;BME280_temperature;BME280_humidity;BME280_pressure;Samples;Min_cycle;Max_cycle;Signal;HPM_P1;HPM_P2
2022/05/01 00:00:11;;;;;;;;;;;10.10;99.90;;;;;;5077894;28;19979;-71
2022/05/01 00:02:38;;;;;;;;;;;10.10;99.90;;;;;;5074055;28;20388;-71
2022/05/01 00:05:05;;;;;;;;;;;10.10;99.90;;;;;;5073487;28;19928;-71
2022/05/01 00:07:32;;;;;;;;;;;10.10;99.90;;;;;;5080524;28;20006;-70
2022/05/01 00:09:59;;;;;;;;;;;10.10;99.90;;;;;;5073037;28;19925;-70
2022/05/01 00:12:26;;;;;;;;;;;10.10;99.90;;;;;;5073885;28;19935;-71
2022/05/01 00:14:52;;;;;;;;;;;10.00;99.90;;;;;;5083112;28;20023;-71
2022/05/01 00:17:20;;;;;;;;;;;10.00;99.90;;;;;;5088960;28;19924;-70
2022/05/01 00:19:47;;;;;;;;;;;10.00;99.90;;;;;;5072350;28;20011;-70
2022/05/01 00:22:13;;;;;;;;;;;10.00;99.90;;;;;;5080576;28;19936;-70
2022/05/01 00:24:40;;;;;;;;;;;10.00;99.90;;;;;;5075989;28;19932;-69
2022/05/01 00:27:06;;;;;;;;;;;10.00;99.90;;;;;;5081544;28;19940;-68
2022/05/01 00:29:33;;;;;;;;;;;9.90;99.90;;;;;;5073976;28;19928;-70
2022/05/01 00:32:00;;;;;;;;;;;9.90;99.90;;;;;;5077344;28;19931;-70
2022/05/01 00:37:12;;;;;;;;;;;9.70;99.90;;;;;;5073550;28;19931;-71
2022/05/01 00:39:38;;;;;;;;;;;9.70;99.90;;;;;;5091621;28;19944;-71
2022/05/01 00:42:05;;;;;;;;;;;9.60;99.90;;;;;;5104196;28;20087;-72
2022/05/01 00:44:31;;;;;;;;;;;9.60;99.90;;;;;;5091448;22;19924;-68
2022/05/01 00:46:59;;;;;;;;;;;9.50;99.90;;;;;;5057522;28;19929;-68
2022/05/01 00:49:28;;;;;;;;;;;9.50;99.90;;;;;;5054252;28;19980;-68
2022/05/01 00:51:55;;;;;;;;;;;9.40;99.90;;;;;;5067300;28;19962;-67
2022/05/01 00:54:23;;;;;;;;;;;9.40;99.90;;;;;;5065654;28;19982;-68
2022/05/01 00:56:50;;;;;;;;;;;9.40;99.90;;;;;;5063569;28;19948;-68
2022/05/01 00:59:18;;;;;;;;;;;9.40;99.90;;;;;;5065811;28;19932;-68
2022/05/01 01:01:45;;;;;;;;;;;9.30;99.90;;;;;;5066760;28;19936;-68
2022/05/01 01:04:12;;;;;;;;;;;9.30;99.90;;;;;;5066186;28;20350;-68
2022/05/01 01:06:40;;;;;;;;;;;9.20;99.90;;;;;;5067162;28;19954;-69
2022/05/01 01:09:07;;;;;;;;;;;9.20;99.90;;;;;;5065712;28;20028;-67
2022/05/01 01:11:33;;;;;;;;;;;9.10;99.90;;;;;;5065480;28;20443;-67
2022/05/01 01:14:01;;;;;;;;;;;9.10;99.90;;;;;;5066606;28;19932;-68
2022/05/01 01:16:29;;;;;;;;;;;9.10;99.90;;;;;;5067436;28;19928;-68
2022/05/01 01:18:57;;;;;;;;;;;9.10;99.90;;;;;;5061724;28;19935;-67
2022/05/01 01:21:25;;;;;;;;;;;9.00;99.90;;;;;;5067165;28;19924;-68
2022/05/01 01:23:52;;;;;;;;;;;9.00;99.90;;;;;;5065686;28;19928;-67
2022/05/01 01:26:19;;;;;;;;;;;;;;;;;;5064061;28;19972;-68
2022/05/01 01:28:46;;;;;;;;;;;8.90;99.90;;;;;;5064559;28;19946;-68
2022/05/01 01:34:10;;;;;;;;;;;8.80;99.90;;;;;;5040942;28;19931;-67
2022/05/01 01:36:39;;;;;;;;;;;8.80;99.90;;;;;;5053448;28;20046;-68
2022/05/01 01:39:06;;;;;;;;;;;8.70;99.90;;;;;;5062501;28;20001;-68
2022/05/01 01:41:33;;;;;;;;;;;8.70;99.90;;;;;;5064716;28;20022;-67
2022/05/01 01:44:00;;;;;;;;;;;8.70;99.90;;;;;;5064795;28;19996;-67
2022/05/01 01:46:27;;;;;;;;;;;8.60;99.90;;;;;;5065119;28;19924;-68
2022/05/01 01:48:53;;;;;;;;;;;8.60;99.90;;;;;;5064247;28;19942;-68
2022/05/01 01:51:20;;;;;;;;;;;8.60;99.90;;;;;;5063299;28;19925;-68
2022/05/01 01:53:48;;;;;;;;;;;8.60;99.90;;;;;;5051412;28;20808;-68
2022/05/01 01:56:15;;;;;;;;;;;8.60;99.90;;;;;;5063158;28;20519;-68
2022/05/01 01:58:41;;;;;;;;;;;8.50;99.90;;;;;;5062130;28;20001;-68
2022/05/01 02:01:09;;;;;;;;;;;8.50;99.90;;;;;;5065600;28;19932;-68
2022/05/01 02:03:36;;;;;;;;;;;8.50;99.90;;;;;;5064412;28;19934;-67
2022/05/01 02:06:04;;;;;;;;;;;8.50;99.90;;;;;;5066125;28;19925;-68
2022/05/01 02:08:30;;;;;;;;;;;8.50;99.90;;;;;;5047056;28;19936;-68
2022/05/01 02:10:58;;;;;;;;;;;8.40;99.90;;;;;;5059628;28;19978;-67
2022/05/01 02:13:25;;;;;;;;;;;8.40;99.90;;;;;;5065230;28;19936;-69
2022/05/01 02:15:51;;;;;;;;;;;8.40;99.90;;;;;;5065397;28;20001;-68
2022/05/01 02:18:18;;;;;;;;;;;8.40;99.90;;;;;;5065765;28;20001;-67
2022/05/01 02:23:30;;;;;;;;;;;8.40;99.90;;;;;;5062312;28;20082;-67
2022/05/01 02:25:56;;;;;;;;;;;8.30;99.90;;;;;;5064007;28;20340;-67
2022/05/01 02:28:24;;;;;;;;;;;8.30;99.90;;;;;;5065844;28;19954;-68
2022/05/01 02:30:51;;;;;;;;;;;8.30;99.90;;;;;;5064973;28;19932;-67
2022/05/01 02:33:18;;;;;;;;;;;8.20;99.90;;;;;;5065617;28;19931;-67
2022/05/01 02:35:46;;;;;;;;;;;8.20;99.90;;;;;;5064990;28;19998;-68
2022/05/01 02:38:12;;;;;;;;;;;8.20;99.90;;;;;;5061671;28;19928;-68
2022/05/01 02:40:39;;;;;;;;;;;8.20;99.90;;;;;;5060256;28;20030;-68
2022/05/01 02:43:06;;;;;;;;;;;8.20;99.90;;;;;;5065347;28;20034;-67
2022/05/01 02:45:34;;;;;;;;;;;8.20;99.90;;;;;;5065241;28;19928;-68
2022/05/01 02:48:00;;;;;;;;;;;8.20;99.90;;;;;;5065952;28;19994;-68
2022/05/01 02:50:27;;;;;;;;;;;8.20;99.90;;;;;;5064330;28;19978;-69
2022/05/01 02:52:54;;;;;;;;;;;8.20;99.90;;;;;;5063817;28;19951;-68
2022/05/01 02:55:21;;;;;;;;;;;8.20;99.90;;;;;;5060180;28;20023;-68
2022/05/01 02:57:47;;;;;;;;;;;8.20;99.90;;;;;;5063676;28;20412;-68
2022/05/01 03:00:16;;;;;;;;;;;8.20;99.90;;;;;;5055629;28;19935;-70
2022/05/01 03:02:45;;;;;;;;;;;8.10;99.90;;;;;;5063779;28;19951;-70
2022/05/01 03:05:11;;;;;;;;;;;8.10;99.90;;;;;;5059169;28;19932;-70
2022/05/01 03:07:38;;;;;;;;;;;8.10;99.90;;;;;;5064156;28;20039;-68
2022/05/01 03:10:05;;;;;;;;;;;8.00;99.90;;;;;;5056024;28;19940;-70
2022/05/01 03:12:31;;;;;;;;;;;8.00;99.90;;;;;;5056539;28;20016;-70
2022/05/01 03:14:58;;;;;;;;;;;8.00;99.90;;;;;;5065471;28;19932;-69
2022/05/01 03:17:24;;;;;;;;;;;8.00;99.90;;;;;;5065215;28;19962;-67
2022/05/01 03:22:36;;;;;;;;;;;8.00;99.90;;;;;;5063228;28;19978;-68
2022/05/01 03:25:03;;;;;;;;;;;8.00;99.90;;;;;;5061085;28;20441;-68
2022/05/01 03:27:29;;;;;;;;;;;8.00;99.90;;;;;;5063287;28;19936;-68
2022/05/01 03:32:36;;;;;;;;;;;7.90;99.90;;;;;;5058656;28;20445;-68
2022/05/01 03:35:05;;;;;;;;;;;7.90;99.90;;;;;;5055882;28;19928;-68
2022/05/01 03:37:31;;;;;;;;;;;7.90;99.90;;;;;;5064293;28;19925;-68
2022/05/01 03:39:58;;;;;;;;;;;7.80;99.90;;;;;;5060651;28;19929;-68
2022/05/01 03:42:24;;;;;;;;;;;7.80;99.90;;;;;;5064970;28;19932;-68
2022/05/01 03:44:51;;;;;;;;;;;7.90;99.90;;;;;;5064481;28;20061;-68
2022/05/01 03:47:17;;;;;;;;;;;7.90;99.90;;;;;;5064737;28;19936;-68
2022/05/01 03:49:43;;;;;;;;;;;7.90;99.90;;;;;;5055083;28;20343;-68
2022/05/01 03:52:11;;;;;;;;;;;7.80;99.90;;;;;;5065218;28;19990;-68
2022/05/01 03:54:38;;;;;;;;;;;7.80;99.90;;;;;;5064562;28;19929;-68
2022/05/01 03:57:05;;;;;;;;;;;7.80;99.90;;;;;;5068751;28;19932;-68
2022/05/01 03:59:31;;;;;;;;;;;7.80;99.90;;;;;;5067937;28;19977;-68
2022/05/01 04:01:57;;;;;;;;;;;7.80;99.90;;;;;;5065974;28;19933;-69
2022/05/01 04:04:24;;;;;;;;;;;7.70;99.90;;;;;;5067635;28;19928;-68
2022/05/01 04:06:50;;;;;;;;;;;7.70;99.90;;;;;;5059591;28;19961;-68
2022/05/01 04:09:21;;;;;;;;;;;7.70;99.90;;;;;;5066044;28;20064;-68
2022/05/01 04:11:47;;;;;;;;;;;7.70;99.90;;;;;;5068033;28;19931;-68
2022/05/01 04:14:13;;;;;;;;;;;7.70;99.90;;;;;;5066854;28;20022;-68
2022/05/01 04:16:40;;;;;;;;;;;7.70;99.90;;;;;;5067508;28;19928;-68
2022/05/01 04:19:07;;;;;;;;;;;7.70;99.90;;;;;;5068433;28;20363;-68
2022/05/01 04:21:34;;;;;;;;;;;7.60;99.90;;;;;;5066832;28;20011;-69
2022/05/01 04:24:00;;;;;;;;;;;7.60;99.90;;;;;;5066262;28;19990;-68
2022/05/01 04:26:28;;;;;;;;;;;7.60;99.90;;;;;;5065479;28;20001;-68
2022/05/01 04:31:39;;;;;;;;;;;7.60;99.90;;;;;;5061350;28;20023;-67
2022/05/01 04:34:05;;;;;;;;;;;7.60;99.90;;;;;;5056896;28;19932;-67
2022/05/01 04:36:32;;;;;;;;;;;7.60;99.90;;;;;;5056218;28;19991;-68
2022/05/01 04:38:58;;;;;;;;;;;7.70;99.90;;;;;;5053328;28;19996;-68
2022/05/01 04:41:25;;;;;;;;;;;7.70;99.90;;;;;;5066728;28;19932;-68
2022/05/01 04:43:53;;;;;;;;;;;7.60;99.90;;;;;;5067243;28;19928;-68
2022/05/01 04:46:19;;;;;;;;;;;7.60;99.90;;;;;;5059858;28;19985;-68
2022/05/01 04:48:46;;;;;;;;;;;7.60;99.90;;;;;;5066443;28;20515;-68
2022/05/01 04:51:12;;;;;;;;;;;7.60;99.90;;;;;;5065901;28;19936;-68
2022/05/01 04:53:39;;;;;;;;;;;7.70;99.90;;;;;;5063527;28;20026;-67
2022/05/01 04:58:47;;;;;;;;;;;7.70;99.90;;;;;;5066040;28;19947;-68
2022/05/01 05:01:15;;;;;;;;;;;7.80;99.90;;;;;;5064336;28;19944;-68
2022/05/01 05:03:42;;;;;;;;;;;7.80;99.90;;;;;;5059091;28;19952;-67
2022/05/01 05:06:08;;;;;;;;;;;7.80;99.90;;;;;;5056466;28;19933;-67
2022/05/01 05:11:19;;;;;;;;;;;7.90;99.90;;;;;;5065088;28;19927;-68
2022/05/01 05:13:46;;;;;;;;;;;7.90;99.90;;;;;;5065284;28;20305;-68
2022/05/01 05:16:13;;;;;;;;;;;8.00;99.90;;;;;;5067339;28;19942;-67
2022/05/01 05:18:41;;;;;;;;;;;7.90;99.90;;;;;;5062926;28;20003;-69
2022/05/01 05:21:07;;;;;;;;;;;7.90;99.90;;;;;;5056037;28;20012;-67
2022/05/01 05:23:34;;;;;;;;;;;7.90;99.90;;;;;;5061550;28;19981;-67
2022/05/01 05:26:00;;;;;;;;;;;7.90;99.90;;;;;;5066102;28;19978;-67
2022/05/01 05:28:27;;;;;;;;;;;8.00;99.90;;;;;;5061523;28;20001;-68
2022/05/01 05:30:54;;;;;;;;;;;7.90;99.90;;;;;;5058681;28;19933;-68
2022/05/01 05:33:20;;;;;;;;;;;8.00;99.90;;;;;;5057606;28;19993;-68
2022/05/01 05:35:48;;;;;;;;;;;8.00;99.90;;;;;;5062905;28;19925;-68
2022/05/01 05:38:15;;;;;;;;;;;8.00;99.90;;;;;;5065720;28;19996;-70
2022/05/01 05:40:41;;;;;;;;;;;8.10;99.90;;;;;;5056118;28;19933;-68
2022/05/01 05:43:08;;;;;;;;;;;8.20;99.90;;;;;;5051912;28;19964;-68
2022/05/01 05:45:34;;;;;;;;;;;8.30;99.90;;;;;;5056972;28;20373;-68
2022/05/01 05:48:01;;;;;;;;;;;8.40;99.90;;;;;;5062418;28;19933;-68
2022/05/01 05:50:28;;;;;;;;;;;8.60;99.90;;;;;;5063126;28;20001;-68
2022/05/01 05:52:56;;;;;;;;;;;8.70;99.90;;;;;;5064241;28;20494;-68
2022/05/01 05:55:23;;;;;;;;;;;8.90;99.90;;;;;;5053847;28;20020;-68
2022/05/01 05:57:49;;;;;;;;;;;9.00;99.90;;;;;;5065581;28;19993;-68
2022/05/01 06:00:16;;;;;;;;;;;9.20;99.90;;;;;;5064127;28;19932;-68
2022/05/01 06:02:42;;;;;;;;;;;9.30;99.90;;;;;;5064128;28;19981;-68
2022/05/01 06:05:09;;;;;;;;;;;9.40;99.90;;;;;;5058990;28;19982;-70
2022/05/01 06:07:37;;;;;;;;;;;9.50;99.90;;;;;;5059006;28;19928;-68
2022/05/01 06:10:05;;;;;;;;;;;9.70;99.90;;;;;;5059616;28;19928;-69
2022/05/01 06:12:32;;;;;;;;;;;9.80;99.90;;;;;;5064458;28;19989;-69
2022/05/01 06:14:58;;;;;;;;;;;9.90;99.90;;;;;;5064249;28;19978;-69
2022/05/01 06:17:25;;;;;;;;;;;9.90;99.90;;;;;;5062643;28;19936;-69
2022/05/01 06:19:51;;;;;;;;;;;9.90;99.90;;;;;;5062383;28;20308;-68
2022/05/01 06:22:18;;;;;;;;;;;9.90;99.90;;;;;;5064597;28;19982;-68
2022/05/01 06:24:44;;;;;;;;;;;9.90;99.90;;;;;;5057880;28;19932;-69
2022/05/01 06:27:12;;;;;;;;;;;9.90;99.90;;;;;;5062330;28;20246;-69
2022/05/01 06:29:39;;;;;;;;;;;9.80;99.90;;;;;;5064406;28;19928;-69
2022/05/01 06:32:06;;;;;;;;;;;9.80;99.90;;;;;;5063559;28;20382;-69
2022/05/01 06:34:33;;;;;;;;;;;9.70;99.90;;;;;;5063490;28;19932;-69
2022/05/01 06:36:59;;;;;;;;;;;9.70;99.90;;;;;;5062417;28;19946;-69
2022/05/01 06:39:26;;;;;;;;;;;9.70;99.90;;;;;;5064894;28;19973;-69
2022/05/01 06:41:52;;;;;;;;;;;9.70;99.90;;;;;;5058617;28;19993;-69
2022/05/01 06:44:20;;;;;;;;;;;9.70;99.90;;;;;;5054055;28;19953;-70
2022/05/01 06:46:46;;;;;;;;;;;9.70;99.90;;;;;;5063854;28;19932;-70
2022/05/01 06:49:13;;;;;;;;;;;9.70;99.90;;;;;;5059966;28;20424;-70
2022/05/01 06:51:39;;;;;;;;;;;9.80;99.90;;;;;;5064068;28;19954;-70
2022/05/01 06:54:08;;;;;;;;;;;9.90;99.90;;;;;;5063915;28;19928;-70
2022/05/01 06:56:35;;;;;;;;;;;10.10;99.90;;;;;;5059712;28;19951;-70
2022/05/01 06:59:02;;;;;;;;;;;10.30;99.90;;;;;;5061217;28;19945;-70
2022/05/01 07:01:30;;;;;;;;;;;10.50;99.90;;;;;;5062828;28;19939;-70
2022/05/01 07:03:56;;;;;;;;;;;10.60;99.90;;;;;;5060518;28;20003;-69
2022/05/01 07:06:23;;;;;;;;;;;10.70;99.90;;;;;;5062207;28;19986;-69
2022/05/01 07:08:49;;;;;;;;;;;10.90;99.90;;;;;;5051767;28;20355;-69
2022/05/01 07:11:16;;;;;;;;;;;11.10;99.90;;;;;;5062833;28;19998;-70
2022/05/01 07:13:42;;;;;;;;;;;11.30;99.90;;;;;;5062425;28;19929;-70
2022/05/01 07:16:09;;;;;;;;;;;11.40;99.90;;;;;;5065065;28;19924;-70
2022/05/01 07:18:36;;;;;;;;;;;11.50;99.90;;;;;;5062611;28;20385;-69
2022/05/01 07:21:03;;;;;;;;;;;11.70;99.90;;;;;;5064652;28;19994;-69
2022/05/01 07:23:30;;;;;;;;;;;11.90;99.90;;;;;;5064003;28;20343;-69
2022/05/01 07:25:57;;;;;;;;;;;12.10;99.90;;;;;;5062370;28;20403;-70
2022/05/01 07:28:24;;;;;;;;;;;12.20;99.90;;;;;;5065354;28;19925;-69
2022/05/01 07:30:50;;;;;;;;;;;12.40;99.90;;;;;;5067805;28;19932;-69
2022/05/01 07:33:17;;;;;;;;;;;12.60;99.90;;;;;;5067112;28;19964;-70
2022/05/01 07:35:46;;;;;;;;;;;12.70;99.90;;;;;;5067451;28;20024;-70
2022/05/01 07:38:12;;;;;;;;;;;12.90;99.90;;;;;;5064103;28;19928;-70
2022/05/01 07:40:39;;;;;;;;;;;13.20;99.90;;;;;;5065218;28;19932;-69
2022/05/01 07:43:06;;;;;;;;;;;13.40;99.90;;;;;;5065265;28;20057;-70
2022/05/01 07:45:32;;;;;;;;;;;13.60;99.90;;;;;;5061757;28;20036;-70
2022/05/01 07:47:59;;;;;;;;;;;13.80;99.90;;;;;;5062111;28;19929;-70
2022/05/01 07:50:26;;;;;;;;;;;14.00;99.90;;;;;;5066795;28;20494;-69
2022/05/01 07:52:54;;;;;;;;;;;14.10;99.90;;;;;;5069416;28;19928;-69
2022/05/01 07:55:20;;;;;;;;;;;14.40;99.90;;;;;;5066050;28;19928;-72
2022/05/01 07:57:47;;;;;;;;;;;14.60;99.90;;;;;;5064374;28;20054;-70
2022/05/01 08:00:14;;;;;;;;;;;14.80;99.90;;;;;;5067753;28;20069;-69
2022/05/01 08:05:23;;;;;;;;;;;15.10;99.90;;;;;;5057920;28;20321;-70
2022/05/01 08:07:50;;;;;;;;;;;15.30;99.90;;;;;;5064940;28;19940;-73
2022/05/01 08:10:18;;;;;;;;;;;15.40;99.90;;;;;;5064168;28;19928;-70
2022/05/01 08:12:44;;;;;;;;;;;15.40;99.90;;;;;;5061986;28;20006;-71
2022/05/01 08:15:11;;;;;;;;;;;15.50;99.90;;;;;;5064986;28;19978;-71
2022/05/01 08:17:37;;;;;;;;;;;15.70;99.90;;;;;;5058116;28;19954;-66
2022/05/01 08:22:48;;;;;;;;;;;16.30;99.90;;;;;;5058080;28;19947;-64
2022/05/01 08:25:15;;;;;;;;;;;16.60;99.90;;;;;;5062907;28;19978;-64
2022/05/01 08:27:43;;;;;;;;;;;16.90;99.90;;;;;;5065185;28;19925;-65
2022/05/01 08:30:09;;;;;;;;;;;17.00;99.90;;;;;;5064870;28;20408;-65
2022/05/01 08:32:36;;;;;;;;;;;17.10;99.90;;;;;;5062731;28;20020;-73
2022/05/01 08:35:03;;;;;;;;;;;17.30;99.90;;;;;;5070104;28;20371;-72
2022/05/01 08:37:29;;;;;;;;;;;17.50;99.90;;;;;;5065630;28;20023;-72
2022/05/01 08:39:56;;;;;;;;;;;17.70;99.90;;;;;;5054773;28;19937;-72
2022/05/01 08:42:22;;;;;;;;;;;18.00;99.90;;;;;;5070260;28;19969;-74
2022/05/01 08:44:50;;;;;;;;;;;18.20;99.90;;;;;;5072008;28;19955;-72
2022/05/01 08:47:23;;;;;;;;;;;18.30;99.90;;;;;;5061779;28;19929;-72
2022/05/01 08:49:54;;;;;;;;;;;18.40;99.90;;;;;;5059016;28;19993;-72
2022/05/01 08:52:22;;;;;;;;;;;18.50;99.90;;;;;;5068251;28;20023;-72
2022/05/01 08:54:49;;;;;;;;;;;18.70;99.90;;;;;;5066149;28;19932;-72
2022/05/01 08:57:19;;;;;;;;;;;18.80;99.90;;;;;;5059806;28;19947;-72
2022/05/01 08:59:46;;;;;;;;;;;18.90;99.90;;;;;;5063270;28;20564;-72
2022/05/01 09:02:14;;;;;;;;;;;19.00;99.90;;;;;;5067252;28;20035;-74
2022/05/01 09:04:41;;;;;;;;;;;19.00;99.90;;;;;;5064268;28;19975;-74
2022/05/01 09:07:08;;;;;;;;;;;19.00;99.90;;;;;;5057320;28;20348;-74
2022/05/01 09:09:34;;;;;;;;;;;19.00;99.90;;;;;;5061832;28;19924;-73
2022/05/01 09:14:46;;;;;;;;;;;19.20;99.90;;;;;;5065632;28;19930;-74
2022/05/01 09:17:15;;;;;;;;;;;19.50;99.90;;;;;;5065580;28;19929;-72
2022/05/01 09:19:42;;;;;;;;;;;19.80;99.90;;;;;;5063244;28;19946;-72
2022/05/01 09:22:09;;;;;;;;;;;20.10;99.90;;;;;;5063878;28;19925;-74
2022/05/01 09:24:35;;;;;;;;;;;20.20;99.80;;;;;;5065023;28;19935;-72
2022/05/01 09:27:02;;;;;;;;;;;20.40;99.90;;;;;;5062917;28;20000;-74
2022/05/01 09:29:32;;;;;;;;;;;20.60;99.90;;;;;;5063825;28;20259;-71
2022/05/01 09:32:00;;;;;;;;;;;20.80;99.30;;;;;;5059259;28;20374;-71
2022/05/01 09:34:29;;;;;;;;;;;20.90;98.00;;;;;;5064391;28;19924;-70
2022/05/01 09:36:56;;;;;;;;;;;21.00;97.60;;;;;;5066160;28;20461;-71
2022/05/01 09:39:24;;;;;;;;;;;21.10;97.50;;;;;;5059655;28;19979;-72
2022/05/01 09:41:51;;;;;;;;;;;21.10;95.20;;;;;;5063447;28;20002;-76
2022/05/01 09:44:18;;;;;;;;;;;21.00;94.90;;;;;;5061963;28;20022;-71
2022/05/01 09:46:45;;;;;;;;;;;20.80;96.30;;;;;;5064443;28;19928;-71
2022/05/01 09:49:13;;;;;;;;;;;20.80;95.80;;;;;;5062346;28;19981;-70
2022/05/01 09:51:43;;;;;;;;;;;20.80;94.70;;;;;;5056470;28;21717;-73
2022/05/01 09:54:11;;;;;;;;;;;21.00;93.80;;;;;;5056756;28;19935;-73
2022/05/01 09:56:44;;;;;;;;;;;21.00;93.30;;;;;;5060577;28;19932;-71
2022/05/01 09:59:12;;;;;;;;;;;21.10;92.70;;;;;;5061317;28;20003;-72
2022/05/01 10:01:38;;;;;;;;;;;21.10;94.30;;;;;;5057392;28;20138;-73
2022/05/01 10:04:06;;;;;;;;;;;21.00;93.90;;;;;;5063217;28;19959;-73
2022/05/01 10:06:33;;;;;;;;;;;21.30;94.40;;;;;;5060416;28;19928;-72
2022/05/01 10:09:02;;;;;;;;;;;21.40;92.10;;;;;;5061668;28;19989;-73
2022/05/01 10:11:29;;;;;;;;;;;21.30;93.20;;;;;;5063869;28;20004;-73
2022/05/01 10:13:56;;;;;;;;;;;21.20;93.00;;;;;;5054080;28;20385;-72
2022/05/01 10:16:24;;;;;;;;;;;21.00;92.80;;;;;;5049805;28;20024;-73
2022/05/01 10:18:50;;;;;;;;;;;20.80;93.80;;;;;;5059741;28;19929;-73
2022/05/01 10:21:17;;;;;;;;;;;20.70;93.70;;;;;;5059401;28;19931;-74
2022/05/01 10:23:44;;;;;;;;;;;20.70;93.00;;;;;;5060569;28;20027;-74
2022/05/01 10:26:15;;;;;;;;;;;20.60;93.10;;;;;;5051058;28;19932;-72
2022/05/01 10:28:57;;;;;;;;;;;20.70;93.50;;;;;;5059721;28;19991;-74
2022/05/01 10:34:39;;;;;;;;;;;20.90;93.90;;;;;;5063997;28;19927;-74
2022/05/01 10:37:14;;;;;;;;;;;21.20;93.10;;;;;;5064409;28;19947;-73
2022/05/01 10:39:41;;;;;;;;;;;21.50;92.90;;;;;;5063102;28;19992;-74
2022/05/01 10:42:09;;;;;;;;;;;21.70;92.40;;;;;;5064887;28;19944;-73
2022/05/01 10:44:36;;;;;;;;;;;21.90;92.70;;;;;;5063633;28;19924;-73
2022/05/01 10:47:09;;;;;;;;;;;21.90;92.10;;;;;;5062812;28;19931;-74
2022/05/01 10:49:37;;;;;;;;;;;22.00;92.80;;;;;;5062852;28;19943;-73
2022/05/01 10:52:20;;;;;;;;;;;22.00;92.40;;;;;;5064316;28;20306;-72
2022/05/01 10:54:50;;;;;;;;;;;22.10;92.50;;;;;;5063936;28;19928;-73
2022/05/01 10:57:18;;;;;;;;;;;21.90;92.20;;;;;;5064701;28;20408;-72
2022/05/01 10:59:47;;;;;;;;;;;21.70;92.70;;;;;;5062139;28;19958;-73
2022/05/01 11:02:36;;;;;;;;;;;21.60;92.30;;;;;;5063975;28;19935;-73
2022/05/01 11:05:03;;;;;;;;;;;21.60;92.50;;;;;;5057925;28;19976;-73
2022/05/01 11:07:30;;;;;;;;;;;21.90;92.20;;;;;;5067393;28;19976;-73
2022/05/01 11:09:58;;;;;;;;;;;22.10;91.00;;;;;;5065305;28;20376;-72
2022/05/01 11:12:27;;;;;;;;;;;22.30;92.30;;;;;;5064460;28;20356;-74
2022/05/01 11:14:54;;;;;;;;;;;22.40;91.80;;;;;;5054481;28;20035;-73
2022/05/01 11:17:50;;;;;;;;;;;22.60;90.50;;;;;;5063131;28;20006;-68
2022/05/01 11:20:29;;;;;;;;;;;22.80;90.90;;;;;;5065922;28;19936;-73
2022/05/01 11:22:55;;;;;;;;;;;23.10;89.20;;;;;;5068295;28;19932;-74
2022/05/01 11:25:31;;;;;;;;;;;23.30;90.10;;;;;;5067153;28;20305;-73
2022/05/01 11:27:59;;;;;;;;;;;23.40;90.90;;;;;;5066964;28;20018;-75
2022/05/01 11:30:33;;;;;;;;;;;23.40;90.60;;;;;;5065900;28;19973;-75
2022/05/01 11:33:01;;;;;;;;;;;23.10;90.50;;;;;;5068878;28;20019;-75
2022/05/01 11:35:42;;;;;;;;;;;22.90;90.00;;;;;;5063755;28;19943;-75
2022/05/01 11:38:09;;;;;;;;;;;22.70;88.20;;;;;;5066019;28;19982;-72
2022/05/01 11:40:36;;;;;;;;;;;22.50;88.60;;;;;;5059543;28;20265;-73
2022/05/01 11:43:15;;;;;;;;;;;22.30;89.20;;;;;;5065754;28;20028;-75
2022/05/01 11:45:42;;;;;;;;;;;22.30;88.00;;;;;;5064058;28;19947;-75
2022/05/01 11:48:13;;;;;;;;;;;22.40;89.00;;;;;;5062574;28;19924;-73
2022/05/01 11:50:40;;;;;;;;;;;22.80;90.00;;;;;;5065932;28;20004;-73
2022/05/01 11:53:15;;;;;;;;;;;23.10;86.70;;;;;;5067590;28;19928;-72
2022/05/01 12:04:01;;;;;;;;;;;22.40;89.00;;;;;;5064680;28;19931;-72
2022/05/01 12:06:29;;;;;;;;;;;22.20;87.80;;;;;;5063106;28;19932;-72
2022/05/01 12:08:55;;;;;;;;;;;22.00;87.40;;;;;;5065798;28;19928;-72
2022/05/01 12:11:29;;;;;;;;;;;22.00;87.80;;;;;;5062668;28;20011;-72
2022/05/01 12:14:07;;;;;;;;;;;22.00;88.40;;;;;;5062399;28;19924;-72
2022/05/01 12:16:34;;;;;;;;;;;22.10;89.10;;;;;;5065770;28;19946;-71
2022/05/01 12:19:00;;;;;;;;;;;22.20;88.00;;;;;;5065671;28;19974;-70
2022/05/01 12:21:30;;;;;;;;;;;22.30;87.90;;;;;;5063736;28;20013;-70
2022/05/01 12:24:01;;;;;;;;;;;22.40;88.80;;;;;;5063426;28;20399;-71
2022/05/01 12:26:28;;;;;;;;;;;22.50;88.30;;;;;;5066834;28;19928;-74
2022/05/01 12:28:55;;;;;;;;;;;22.40;89.30;;;;;;5065115;28;19928;-74
2022/05/01 12:31:22;;;;;;;;;;;22.40;88.60;;;;;;5063191;28;19925;-72
2022/05/01 12:33:52;;;;;;;;;;;22.40;88.70;;;;;;5061776;28;20015;-69
2022/05/01 12:36:23;;;;;;;;;;;22.30;89.50;;;;;;5066054;28;19928;-69
2022/05/01 12:39:00;;;;;;;;;;;22.10;86.80;;;;;;5067556;28;19935;-71
2022/05/01 12:44:10;;;;;;;;;;;21.60;88.30;;;;;;5062969;28;20056;-70
2022/05/01 12:46:39;;;;;;;;;;;21.40;88.60;;;;;;5063875;28;19985;-69
2022/05/01 12:49:06;;;;;;;;;;;21.20;89.20;;;;;;5064454;28;19924;-70
2022/05/01 12:51:36;;;;;;;;;;;21.10;89.10;;;;;;5059922;28;20006;-70
2022/05/01 12:54:10;;;;;;;;;;;20.90;89.90;;;;;;5066191;28;20340;-70
2022/05/01 12:56:37;;;;;;;;;;;20.80;90.00;;;;;;5060582;28;20012;-70
2022/05/01 12:59:20;;;;;;;;;;;20.80;90.60;;;;;;5060580;28;19928;-70
2022/05/01 13:01:47;;;;;;;;;;;20.80;88.70;;;;;;5061840;28;20397;-75
2022/05/01 13:04:21;;;;;;;;;;;20.80;87.90;;;;;;5063968;28;20015;-73
2022/05/01 13:06:48;;;;;;;;;;;20.60;87.30;;;;;;5064148;28;19925;-75
2022/05/01 13:09:16;;;;;;;;;;;20.50;88.90;;;;;;5062980;28;20224;-75
2022/05/01 13:11:58;;;;;;;;;;;20.40;88.70;;;;;;5064034;28;20451;-73
2022/05/01 13:14:28;;;;;;;;;;;20.30;90.10;;;;;;5062757;28;19958;-71
2022/05/01 13:17:06;;;;;;;;;;;20.30;90.30;;;;;;5061178;28;19928;-74
2022/05/01 13:19:33;;;;;;;;;;;20.40;89.50;;;;;;5058888;28;20019;-72
2022/05/01 13:21:59;;;;;;;;;;;20.40;90.10;;;;;;5063885;28;19928;-72
2022/05/01 13:24:29;;;;;;;;;;;20.40;90.30;;;;;;5064783;28;19925;-74
2022/05/01 13:26:56;;;;;;;;;;;20.40;88.50;;;;;;5064486;28;19935;-72
2022/05/01 13:29:23;;;;;;;;;;;20.30;89.00;;;;;;5061502;28;20344;-72
2022/05/01 13:31:50;;;;;;;;;;;20.10;88.80;;;;;;5063928;28;19936;-73
2022/05/01 13:34:19;;;;;;;;;;;19.90;89.30;;;;;;5058694;28;19936;-72
2022/05/01 13:36:46;;;;;;;;;;;19.80;88.80;;;;;;5057866;28;20030;-73
2022/05/01 13:39:12;;;;;;;;;;;19.70;88.50;;;;;;5058297;28;20310;-74
2022/05/01 13:47:08;;;;;;;;;;;19.40;90.90;;;;;;5064610;28;20045;-72
2022/05/01 13:49:36;;;;;;;;;;;19.50;90.40;;;;;;5062798;28;19967;-73
2022/05/01 13:52:02;;;;;;;;;;;19.50;90.60;;;;;;5061950;28;19925;-73
2022/05/01 13:54:29;;;;;;;;;;;19.50;90.30;;;;;;5062974;28;20833;-72
2022/05/01 13:56:56;;;;;;;;;;;19.50;91.00;;;;;;5058487;28;19928;-74
2022/05/01 13:59:22;;;;;;;;;;;19.60;90.40;;;;;;5063733;28;19928;-72
2022/05/01 14:01:51;;;;;;;;;;;19.60;90.70;;;;;;5057880;28;19932;-73
2022/05/01 14:04:18;;;;;;;;;;;19.60;90.80;;;;;;5058447;28;20026;-73
2022/05/01 14:06:46;;;;;;;;;;;19.60;90.10;;;;;;5064079;28;19932;-73
2022/05/01 14:09:17;;;;;;;;;;;19.60;91.00;;;;;;5063428;28;19950;-72
2022/05/01 14:11:44;;;;;;;;;;;19.80;90.70;;;;;;5061435;28;19960;-72
2022/05/01 14:14:10;;;;;;;;;;;20.10;91.20;;;;;;5063004;28;20371;-73
2022/05/01 14:16:39;;;;;;;;;;;20.50;91.00;;;;;;5060082;28;19925;-73
2022/05/01 14:19:06;;;;;;;;;;;21.20;90.70;;;;;;5060970;28;19929;-74
2022/05/01 14:21:34;;;;;;;;;;;21.90;90.50;;;;;;5060794;28;20004;-74
2022/05/01 14:24:04;;;;;;;;;;;22.70;90.50;;;;;;5063181;28;19936;-75
2022/05/01 14:26:30;;;;;;;;;;;23.30;88.40;;;;;;5058657;28;20007;-73
2022/05/01 14:28:57;;;;;;;;;;;24.00;89.10;;;;;;5057631;28;20069;-73
2022/05/01 14:31:26;;;;;;;;;;;24.50;89.60;;;;;;5062150;28;19981;-73
2022/05/01 14:33:55;;;;;;;;;;;24.80;85.80;;;;;;5060629;28;19932;-77
2022/05/01 14:36:23;;;;;;;;;;;24.60;84.40;;;;;;5060533;28;20386;-73
2022/05/01 14:38:52;;;;;;;;;;;24.00;86.50;;;;;;5058481;28;19962;-76
2022/05/01 14:41:25;;;;;;;;;;;23.40;86.20;;;;;;5061392;28;19928;-76
2022/05/01 14:43:54;;;;;;;;;;;22.90;84.50;;;;;;5062299;28;19928;-76
2022/05/01 14:46:21;;;;;;;;;;;22.20;82.50;;;;;;5061922;28;19932;-75
2022/05/01 14:49:01;;;;;;;;;;;21.60;85.90;;;;;;5055888;28;19933;-74
2022/05/01 14:51:28;;;;;;;;;;;21.20;87.20;;;;;;5062263;28;20216;-74
2022/05/01 14:53:56;;;;;;;;;;;20.90;86.90;;;;;;5057684;28;20022;-74
2022/05/01 14:56:26;;;;;;;;;;;20.80;86.60;;;;;;5053047;28;19935;-73
2022/05/01 15:07:05;;;;;;;;;;;20.00;88.90;;;;;;5058093;28;20400;-71
2022/05/01 15:09:32;;;;;;;;;;;19.80;87.50;;;;;;5059435;28;20370;-72
2022/05/01 15:12:00;;;;;;;;;;;19.60;88.50;;;;;;5061704;28;19932;-72
2022/05/01 15:14:27;;;;;;;;;;;19.40;86.70;;;;;;5065767;28;19984;-72
2022/05/01 15:16:58;;;;;;;;;;;19.20;89.20;;;;;;5063072;28;19950;-72
2022/05/01 15:19:29;;;;;;;;;;;19.10;88.90;;;;;;5060474;28;19942;-74
2022/05/01 15:24:49;;;;;;;;;;;19.00;87.70;;;;;;5061229;28;20037;-74
2022/05/01 15:27:19;;;;;;;;;;;19.00;90.00;;;;;;5065212;28;20469;-74